Time;durP1;ratioP1;P1;durP2;ratioP2;P2;SDS_P1;SDS_P2;PMS_P1;PMS_P2;Temp;Humidity;BMP_temperature;BMP_pressure;BME280_temperature;BME280_humidity;BME280_pressure;Samples;Min_cycle;Max_cycle;Signal;HPM_P1;HPM_P2
2022/02/23 00:01:17;;;;;;;21.50;2.67;;;6.00;99.90;;;;;;5032808;28;20492;-80
2022/02/23 00:03:42;;;;;;;20.93;2.37;;;6.10;99.90;;;;;;5016373;28;20048;-80
2022/02/23 00:06:08;;;;;;;19.13;2.63;;;6.10;99.90;;;;;;5016225;28;20128;-80
2022/02/23 00:08:35;;;;;;;19.77;2.57;;;6.00;99.90;;;;;;5032714;28;20064;-80
2022/02/23 00:11:00;;;;;;;15.87;2.33;;;6.00;99.90;;;;;;5032479;28;20476;-80
2022/02/23 00:13:27;;;;;;;19.40;2.63;;;6.10;99.90;;;;;;5033743;28;20089;-80
2022/02/23 00:15:54;;;;;;;21.77;3.43;;;6.00;99.90;;;;;;5040270;28;20539;-80
2022/02/23 00:18:20;;;;;;;19.03;2.90;;;6.00;99.90;;;;;;5035939;28;20036;-80
2022/02/23 00:20:46;;;;;;;25.30;2.93;;;5.90;99.90;;;;;;5019462;28;20469;-81
2022/02/23 00:23:12;;;;;;;22.63;4.37;;;5.90;99.90;;;;;;5035820;28;20028;-81
2022/02/23 00:25:38;;;;;;;29.27;2.67;;;6.00;99.90;;;;;;5019275;28;20032;-81
2022/02/23 00:28:04;;;;;;;20.40;2.50;;;5.80;99.90;;;;;;5019250;28;20047;-81
2022/02/23 00:30:30;;;;;;;17.93;2.67;;;5.90;99.90;;;;;;5035789;28;20139;-81
2022/02/23 00:32:56;;;;;;;16.93;2.67;;;5.80;99.90;;;;;;5052007;28;20460;-80
2022/02/23 00:35:22;;;;;;;24.27;2.97;;;5.80;99.90;;;;;;5052177;28;20121;-80
2022/02/23 00:37:48;;;;;;;21.23;2.80;;;5.80;99.90;;;;;;5019200;28;20432;-81
2022/02/23 00:40:14;;;;;;;22.33;2.93;;;5.80;99.90;;;;;;5052002;28;20018;-80
2022/02/23 00:42:39;;;;;;;23.67;3.23;;;5.70;99.90;;;;;;5037334;28;20026;-80
2022/02/23 00:45:05;;;;;;;17.47;2.73;;;5.70;99.90;;;;;;5033304;28;20084;-81
2022/02/23 00:47:31;;;;;;;21.03;2.97;;;5.70;99.90;;;;;;5032013;28;20068;-80
2022/02/23 00:49:57;;;;;;;17.13;2.93;;;5.70;99.90;;;;;;5015639;28;20061;-81
2022/02/23 00:52:22;;;;;;;17.43;2.87;;;5.60;99.90;;;;;;5032019;28;20031;-81
2022/02/23 00:54:48;;;;;;;23.93;2.70;;;5.50;99.90;;;;;;5032052;28;20500;-80
2022/02/23 00:57:15;;;;;;;21.83;2.60;;;5.60;99.90;;;;;;5031978;28;20029;-81
2022/02/23 00:59:42;;;;;;;17.53;2.63;;;5.50;99.90;;;;;;5015767;28;20021;-80
2022/02/23 01:02:08;;;;;;;26.63;3.17;;;5.60;99.90;;;;;;5046855;28;20032;-80
2022/02/23 01:04:34;;;;;;;25.13;3.07;;;5.60;99.90;;;;;;5055409;28;20421;-80
2022/02/23 01:06:59;;;;;;;14.07;2.40;;;5.50;99.90;;;;;;5039420;28;20163;-80
2022/02/23 01:09:25;;;;;;;23.03;2.90;;;5.50;99.90;;;;;;5039354;28;20431;-80
2022/02/23 01:11:51;;;;;;;19.97;2.47;;;5.30;99.90;;;;;;5055612;28;20480;-81
2022/02/23 01:14:17;;;;;;;17.37;2.53;;;5.30;99.90;;;;;;5055753;28;20075;-80
2022/02/23 01:16:43;;;;;;;27.37;4.30;;;5.30;99.90;;;;;;5056903;28;20021;-81
2022/02/23 01:19:09;;;;;;;19.00;2.43;;;5.40;99.90;;;;;;5039172;28;20029;-80
2022/02/23 01:21:34;;;;;;;22.27;2.80;;;5.20;99.90;;;;;;5055484;28;20079;-81
2022/02/23 01:24:01;;;;;;;24.07;3.00;;;5.30;99.90;;;;;;5038963;28;20554;-80
2022/02/23 01:26:26;;;;;;;15.13;2.70;;;5.20;99.90;;;;;;5055300;28;20533;-80
2022/02/23 01:28:52;;;;;;;15.30;2.57;;;5.20;99.90;;;;;;5037936;28;20040;-81
2022/02/23 01:31:18;;;;;;;18.33;2.53;;;5.20;99.90;;;;;;5038653;28;20033;-81
2022/02/23 01:33:44;;;;;;;21.97;2.80;;;5.20;99.90;;;;;;5055361;28;20537;-81
2022/02/23 01:36:10;;;;;;;16.97;1.93;;;5.20;99.90;;;;;;5038771;28;20424;-80
2022/02/23 01:38:36;;;;;;;24.10;3.37;;;5.20;99.90;;;;;;5038657;28;20119;-81
2022/02/23 01:41:02;;;;;;;20.70;2.70;;;5.10;99.90;;;;;;5038597;28;20032;-80
2022/02/23 01:43:29;;;;;;;23.73;4.63;;;5.10;99.90;;;;;;5035076;28;20026;-81
2022/02/23 01:45:54;;;;;;;27.27;3.23;;;5.20;99.90;;;;;;5019121;28;20022;-80
2022/02/23 01:48:20;;;;;;;17.00;2.63;;;5.00;99.90;;;;;;5018504;28;20381;-80
2022/02/23 01:50:46;;;;;;;18.63;2.23;;;5.10;99.90;;;;;;5002336;28;20025;-80
2022/02/23 01:53:14;;;;;;;16.53;2.30;;;5.00;99.90;;;;;;5018593;28;20030;-80
2022/02/23 01:55:39;;;;;;;17.37;2.53;;;5.00;99.90;;;;;;5018930;28;20448;-80
2022/02/23 01:58:05;;;;;;;20.37;2.77;;;5.00;99.90;;;;;;5018560;28;20053;-80
2022/02/23 02:00:31;;;;;;;16.87;2.13;;;5.00;99.90;;;;;;5018439;28;20030;-80
2022/02/23 02:02:57;;;;;;;9.83;1.97;;;5.00;99.90;;;;;;5035584;28;20090;-80
2022/02/23 02:05:23;;;;;;;23.67;3.03;;;5.00;99.90;;;;;;5034894;28;20561;-79
2022/02/23 02:07:48;;;;;;;19.17;2.33;;;4.90;99.90;;;;;;5018939;28;20033;-79
2022/02/23 02:10:14;;;;;;;17.63;2.30;;;4.90;99.90;;;;;;5035288;28;20035;-81
2022/02/23 02:12:41;;;;;;;19.33;2.70;;;4.90;99.90;;;;;;5038448;28;20025;-79
2022/02/23 02:15:08;;;;;;;15.27;2.00;;;4.80;99.90;;;;;;5037374;28;20027;-79
2022/02/23 02:17:34;;;;;;;11.07;2.27;;;4.80;99.90;;;;;;5054369;28;20025;-80
2022/02/23 02:19:59;;;;;;;20.20;1.83;;;4.80;99.90;;;;;;5054708;28;20473;-80
2022/02/23 02:22:29;;;;;;;20.53;2.10;;;4.70;99.90;;;;;;5054702;28;20029;-80
2022/02/23 02:24:56;;;;;;;20.93;2.50;;;4.80;99.90;;;;;;5054361;28;20025;-79
2022/02/23 02:27:22;;;;;;;14.70;1.93;;;4.70;99.90;;;;;;5037791;28;20546;-79
2022/02/23 02:29:48;;;;;;;18.10;1.70;;;4.70;99.90;;;;;;5054349;28;20037;-79
2022/02/23 02:32:17;;;;;;;16.40;2.17;;;4.70;99.90;;;;;;5054246;28;20123;-80
2022/02/23 02:34:43;;;;;;;12.97;2.60;;;4.60;99.90;;;;;;5037833;28;20082;-79
2022/02/23 02:37:09;;;;;;;15.13;1.73;;;4.70;99.90;;;;;;5054237;28;20492;-80
2022/02/23 02:39:35;;;;;;;16.50;2.53;;;4.60;99.90;;;;;;5037883;28;20029;-80
2022/02/23 02:42:01;;;;;;;15.17;2.40;;;4.60;99.90;;;;;;5037547;28;20025;-80
2022/02/23 02:44:27;;;;;;;14.87;2.40;;;4.60;99.90;;;;;;5054537;28;20492;-79
2022/02/23 02:46:53;;;;;;;19.17;2.07;;;4.60;99.90;;;;;;5054069;28;20025;-80
2022/02/23 02:49:18;;;;;;;17.87;2.03;;;4.60;99.90;;;;;;5037846;28;20091;-80
2022/02/23 02:51:44;;;;;;;19.50;3.50;;;4.60;99.90;;;;;;5037303;28;20071;-79
2022/02/23 02:54:10;;;;;;;20.27;2.70;;;4.60;99.90;;;;;;5037358;28;20021;-79
2022/02/23 02:56:38;;;;;;;13.07;2.17;;;4.60;99.90;;;;;;5055234;28;20373;-80
2022/02/23 02:59:04;;;;;;;13.10;1.97;;;4.60;99.90;;;;;;5037238;28;20021;-80
2022/02/23 03:01:30;;;;;;;16.50;2.50;;;4.60;99.90;;;;;;5037397;28;20036;-80
2022/02/23 03:03:57;;;;;;;17.53;2.67;;;4.60;99.90;;;;;;5053704;28;20410;-79
2022/02/23 03:06:23;;;;;;;14.37;2.30;;;4.60;99.90;;;;;;5053677;28;20053;-80
2022/02/23 03:08:50;;;;;;;20.50;2.67;;;4.60;99.90;;;;;;5037093;28;20091;-80
2022/02/23 03:11:16;;;;;;;13.97;2.10;;;4.40;99.90;;;;;;5053536;28;20040;-80
2022/02/23 03:13:42;;;;;;;21.17;2.40;;;4.50;99.90;;;;;;5037377;28;20470;-79
2022/02/23 03:16:10;;;;;;;22.60;2.30;;;4.50;99.90;;;;;;5053416;28;20061;-79
2022/02/23 03:18:35;;;;;;;15.07;2.23;;;4.50;99.90;;;;;;5053506;28;20029;-80
2022/02/23 03:21:01;;;;;;;15.87;1.90;;;4.50;99.90;;;;;;5053748;28;20024;-80
2022/02/23 03:23:28;;;;;;;13.60;2.03;;;4.60;99.90;;;;;;5053362;28;20021;-80
2022/02/23 03:25:54;;;;;;;23.23;2.80;;;4.40;99.90;;;;;;5053260;28;20017;-80
2022/02/23 03:28:20;;;;;;;18.43;2.00;;;4.40;99.90;;;;;;5054649;28;20024;-80
2022/02/23 03:30:46;;;;;;;21.97;2.10;;;4.50;99.90;;;;;;5053231;28;20013;-80
2022/02/23 03:33:12;;;;;;;11.40;2.00;;;4.50;99.90;;;;;;5052907;28;20124;-80
2022/02/23 03:35:39;;;;;;;6.17;1.40;;;4.40;99.90;;;;;;5053168;28;20116;-80
2022/02/23 03:38:06;;;;;;;22.00;3.17;;;4.40;99.90;;;;;;5053361;28;20535;-80
2022/02/23 03:40:33;;;;;;;13.40;1.97;;;4.40;99.90;;;;;;5033023;28;20040;-80
2022/02/23 03:42:59;;;;;;;21.30;2.17;;;4.30;99.90;;;;;;5033021;28;20029;-80
2022/02/23 03:45:25;;;;;;;15.73;1.97;;;4.40;99.90;;;;;;5049587;28;20028;-80
2022/02/23 03:47:51;;;;;;;9.90;1.50;;;4.40;99.90;;;;;;5049527;28;20120;-80
2022/02/23 03:50:16;;;;;;;22.90;2.83;;;4.30;99.90;;;;;;5033275;28;20601;-80
2022/02/23 03:52:42;;;;;;;16.77;2.03;;;4.30;99.90;;;;;;5049392;28;20036;-80
2022/02/23 03:55:09;;;;;;;25.00;2.80;;;4.20;99.90;;;;;;5049466;28;20084;-80
2022/02/23 03:57:35;;;;;;;15.20;3.23;;;4.30;99.90;;;;;;5016544;28;20044;-80
2022/02/23 04:00:01;;;;;;;18.63;2.93;;;4.30;99.90;;;;;;5033898;28;20490;-80
2022/02/23 04:02:27;;;;;;;17.20;2.07;;;4.30;99.90;;;;;;5033277;28;20083;-80
2022/02/23 04:04:52;;;;;;;19.73;2.93;;;4.40;99.90;;;;;;5016430;28;20021;-80
2022/02/23 04:07:18;;;;;;;19.47;2.27;;;4.30;99.90;;;;;;5032442;28;20045;-80
2022/02/23 04:09:48;;;;;;;18.27;2.70;;;4.20;99.90;;;;;;5049126;28;20101;-80
2022/02/23 04:12:16;;;;;;;8.73;1.73;;;4.20;99.90;;;;;;5049259;28;20033;-80
2022/02/23 04:14:43;;;;;;;17.43;2.00;;;4.10;99.90;;;;;;5049051;28;20018;-79
2022/02/23 04:17:10;;;;;;;18.87;2.23;;;4.20;99.90;;;;;;4999727;28;20032;-80
2022/02/23 04:19:36;;;;;;;10.47;2.10;;;4.10;99.90;;;;;;5049010;28;20036;-80
2022/02/23 04:22:02;;;;;;;17.67;2.77;;;4.10;99.90;;;;;;5032506;28;20029;-80
2022/02/23 04:24:28;;;;;;;15.53;2.20;;;4.00;99.90;;;;;;5000107;28;20116;-80
2022/02/23 04:26:54;;;;;;;24.23;3.00;;;4.00;99.90;;;;;;4999669;28;20547;-80
2022/02/23 04:29:20;;;;;;;16.23;2.10;;;4.00;99.90;;;;;;4999588;28;20386;-80
2022/02/23 04:31:45;;;;;;;14.90;2.97;;;3.90;99.90;;;;;;5031764;28;20022;-80
2022/02/23 04:34:11;;;;;;;17.80;3.17;;;4.00;99.90;;;;;;5032037;28;20140;-80
2022/02/23 04:36:37;;;;;;;20.93;3.77;;;3.90;99.90;;;;;;5032291;28;20021;-80
2022/02/23 04:39:04;;;;;;;19.90;2.63;;;3.90;99.90;;;;;;5045391;28;20020;-80
2022/02/23 04:41:31;;;;;;;20.17;2.73;;;3.90;99.90;;;;;;5035570;28;20135;-80
2022/02/23 04:43:56;;;;;;;16.97;3.17;;;3.90;99.90;;;;;;5035488;28;20025;-80
2022/02/23 04:46:22;;;;;;;17.10;2.87;;;3.90;99.90;;;;;;5035403;28;20035;-80
2022/02/23 04:48:50;;;;;;;17.83;3.40;;;3.90;99.90;;;;;;5052007;28;20492;-80
2022/02/23 04:51:16;;;;;;;14.90;2.80;;;3.90;99.90;;;;;;5035580;28;20036;-80
2022/02/23 04:53:42;;;;;;;18.10;2.90;;;3.80;99.90;;;;;;5052048;28;20104;-80
2022/02/23 04:56:07;;;;;;;13.93;2.70;;;3.80;99.90;;;;;;5052212;28;20048;-80
2022/02/23 04:58:33;;;;;;;15.10;2.87;;;3.90;99.90;;;;;;5031961;28;20025;-80
2022/02/23 05:00:59;;;;;;;11.80;2.90;;;3.80;99.90;;;;;;5033463;28;20417;-80
2022/02/23 05:03:24;;;;;;;14.13;2.63;;;3.70;99.90;;;;;;5031938;28;20018;-80
2022/02/23 05:05:50;;;;;;;10.90;2.47;;;3.80;99.90;;;;;;5016458;28;20409;-81
2022/02/23 05:08:17;;;;;;;16.60;2.50;;;3.80;99.90;;;;;;5015404;28;20026;-80
2022/02/23 05:10:46;;;;;;;16.00;3.37;;;3.80;99.90;;;;;;5033098;28;20033;-80
2022/02/23 05:13:12;;;;;;;15.33;3.03;;;3.70;99.90;;;;;;5031884;28;20025;-80
2022/02/23 05:15:39;;;;;;;19.13;2.83;;;3.70;99.90;;;;;;5048399;28;20024;-80
2022/02/23 05:18:06;;;;;;;18.20;3.13;;;3.70;99.90;;;;;;5033111;28;20501;-79
2022/02/23 05:20:33;;;;;;;15.70;3.13;;;3.70;99.90;;;;;;5048180;28;20559;-80
2022/02/23 05:22:59;;;;;;;14.40;2.47;;;3.70;99.90;;;;;;5031874;28;20501;-80
2022/02/23 05:25:24;;;;;;;16.50;3.47;;;3.70;99.90;;;;;;5048003;28;20021;-80
2022/02/23 05:27:50;;;;;;;20.40;3.23;;;3.70;99.90;;;;;;5034108;28;20166;-80
2022/02/23 05:30:16;;;;;;;16.97;2.93;;;3.70;99.90;;;;;;5035375;28;20052;-80
2022/02/23 05:32:42;;;;;;;14.70;2.70;;;3.70;99.90;;;;;;5034493;28;20506;-80
2022/02/23 05:35:08;;;;;;;23.80;3.20;;;3.70;99.90;;;;;;5031552;28;20049;-79
2022/02/23 05:37:34;;;;;;;10.50;2.60;;;3.60;99.90;;;;;;5000959;28;20120;-80
2022/02/23 05:40:01;;;;;;;11.67;3.43;;;3.70;99.90;;;;;;5015670;28;20438;-80
2022/02/23 05:42:26;;;;;;;17.83;3.67;;;3.60;99.90;;;;;;5033028;28;20075;-80
2022/02/23 05:44:52;;;;;;;14.50;3.17;;;3.60;99.90;;;;;;5022184;28;20049;-80
2022/02/23 05:47:18;;;;;;;17.37;3.10;;;3.60;99.90;;;;;;5034846;28;20112;-80
2022/02/23 05:49:43;;;;;;;12.50;2.57;;;3.60;99.90;;;;;;5035025;28;20033;-81
2022/02/23 05:52:13;;;;;;;21.10;3.03;;;3.50;99.90;;;;;;5021042;28;20025;-80
2022/02/23 05:54:39;;;;;;;14.43;2.83;;;3.50;99.90;;;;;;5038766;28;20033;-80
2022/02/23 05:57:05;;;;;;;15.33;3.60;;;3.50;99.90;;;;;;5054837;28;20023;-80
2022/02/23 05:59:31;;;;;;;22.47;3.37;;;3.50;99.90;;;;;;5038509;28;20087;-80
2022/02/23 06:01:56;;;;;;;11.47;2.70;;;3.50;99.90;;;;;;5021808;28;20025;-80
2022/02/23 06:04:22;;;;;;;15.73;3.23;;;3.50;99.90;;;;;;5022266;28;20029;-80
2022/02/23 06:06:48;;;;;;;15.97;2.37;;;3.50;99.90;;;;;;5018466;28;20025;-80
2022/02/23 06:09:14;;;;;;;16.97;3.03;;;3.50;99.90;;;;;;5034748;28;20017;-80
2022/02/23 06:11:39;;;;;;;18.53;3.00;;;3.50;99.90;;;;;;5034955;28;20056;-81
2022/02/23 06:14:06;;;;;;;21.97;3.60;;;3.40;99.90;;;;;;5018268;28;20018;-81
2022/02/23 06:16:32;;;;;;;14.90;2.77;;;3.40;99.90;;;;;;5034409;28;20048;-80
2022/02/23 06:18:58;;;;;;;14.07;3.03;;;3.50;99.90;;;;;;5034608;28;20048;-80
2022/02/23 06:21:25;;;;;;;16.57;4.00;;;3.40;99.90;;;;;;5018219;28;20036;-81
2022/02/23 06:23:51;;;;;;;16.67;3.43;;;3.50;99.90;;;;;;5034637;28;20025;-81
2022/02/23 06:26:18;;;;;;;15.20;3.20;;;3.50;99.90;;;;;;5034405;28;20029;-80
2022/02/23 06:28:44;;;;;;;12.10;2.83;;;3.40;99.90;;;;;;5018186;28;20029;-80
2022/02/23 06:31:10;;;;;;;21.17;3.40;;;3.40;99.90;;;;;;5034297;28;20033;-81
2022/02/23 06:33:39;;;;;;;15.63;2.77;;;3.40;99.90;;;;;;5017868;28;20049;-81
2022/02/23 06:36:05;;;;;;;18.63;4.13;;;3.40;99.90;;;;;;5034329;28;20363;-80
2022/02/23 06:38:30;;;;;;;21.23;4.20;;;3.40;99.90;;;;;;5017632;28;20040;-81
2022/02/23 06:40:57;;;;;;;15.27;3.33;;;3.40;99.90;;;;;;5017610;28;20120;-81
2022/02/23 06:43:23;;;;;;;14.87;3.27;;;3.30;99.90;;;;;;5034432;28;20029;-80
2022/02/23 06:45:50;;;;;;;21.83;4.10;;;3.30;99.90;;;;;;5034275;28;20048;-81
2022/02/23 06:48:22;;;;;;;17.37;3.63;;;3.40;99.90;;;;;;5034185;28;20044;-80
2022/02/23 06:50:48;;;;;;;16.23;3.20;;;3.40;99.90;;;;;;5034017;28;20036;-80
2022/02/23 06:53:15;;;;;;;15.30;2.93;;;3.40;99.90;;;;;;5033832;28;20076;-84
2022/02/23 06:55:45;;;;;;;13.40;3.67;;;3.40;99.90;;;;;;5034044;28;20028;-83
2022/02/23 06:58:11;;;;;;;21.50;3.10;;;3.40;99.90;;;;;;5034798;28;20074;-84
2022/02/23 07:00:38;;;;;;;15.53;3.20;;;3.40;99.90;;;;;;5050548;28;20098;-84
2022/02/23 07:03:04;;;;;;;16.60;2.70;;;3.40;99.90;;;;;;5053663;28;20075;-84
2022/02/23 07:05:30;;;;;;;14.70;3.40;;;3.40;99.90;;;;;;5053785;28;20531;-84
2022/02/23 07:07:56;;;;;;;19.67;2.77;;;3.40;99.90;;;;;;5053573;28;20053;-84
2022/02/23 07:10:28;;;;;;;17.20;3.53;;;3.50;99.90;;;;;;5053719;28;20046;-84
2022/02/23 07:12:54;;;;;;;18.63;3.07;;;3.40;99.90;;;;;;5054706;28;20024;-84
2022/02/23 07:18:42;;;;;;;15.20;2.40;;;3.50;99.90;;;;;;5055068;28;20040;-85
2022/02/23 07:21:09;;;;;;;21.63;2.93;;;3.50;99.90;;;;;;5053235;28;20018;-84
2022/02/23 07:23:38;;;;;;;16.40;3.33;;;3.50;99.90;;;;;;5055333;28;20421;-86
2022/02/23 07:26:03;;;;;;;19.57;4.00;;;3.50;99.90;;;;;;5027423;28;20112;-84
2022/02/23 07:35:14;;;;;;;20.73;3.57;;;3.60;99.90;;;;;;5034503;28;20032;-86
2022/02/23 07:37:45;;;;;;;14.57;2.60;;;3.80;99.90;;;;;;5034451;28;20452;-84
2022/02/23 07:40:19;;;;;;;16.17;3.40;;;3.70;99.90;;;;;;5048206;28;20104;-87
2022/02/23 07:42:45;;;;;;;16.70;3.65;;;3.70;99.90;;;;;;5069425;28;20025;-86
2022/02/23 07:45:11;;;;;;;14.77;3.03;;;3.80;99.90;;;;;;5026502;28;20076;-85
2022/02/23 07:47:37;;;;;;;14.47;3.80;;;3.80;99.90;;;;;;5038526;28;20033;-86
2022/02/23 07:50:11;;;;;;;15.43;2.97;;;3.90;99.90;;;;;;5032897;28;20028;-87
2022/02/23 07:52:37;;;;;;;16.08;3.30;;;3.90;99.90;;;;;;5032892;28;20021;-87
2022/02/23 07:55:04;;;;;;;15.23;2.83;;;4.10;99.90;;;;;;5016861;28;20033;-85
2022/02/23 07:57:30;;;;;;;14.23;2.93;;;4.00;99.90;;;;;;5032889;28;20151;-87
2022/02/23 07:59:56;;;;;;;14.67;3.37;;;4.10;99.90;;;;;;5033783;28;20055;-87
2022/02/23 08:02:24;;;;;;;21.57;2.87;;;4.10;99.90;;;;;;5029041;28;20447;-87
2022/02/23 08:04:52;;;;;;;15.27;2.87;;;4.10;99.90;;;;;;5033174;28;20087;-87
2022/02/23 08:07:23;;;;;;;14.43;2.93;;;4.20;99.90;;;;;;5038081;28;20366;-87
2022/02/23 08:09:49;;;;;;;13.33;2.47;;;4.20;99.90;;;;;;5048274;28;20041;-87
2022/02/23 08:12:15;;;;;;;11.07;2.67;;;4.30;99.90;;;;;;5041309;28;20030;-87
2022/02/23 08:14:41;;;;;;;12.83;2.80;;;4.40;99.90;;;;;;5031994;28;20516;-85
2022/02/23 08:19:55;;;;;;;15.40;3.40;;;4.50;99.90;;;;;;5039947;28;20040;-85
2022/02/23 08:22:28;;;;;;;17.23;3.23;;;4.60;99.90;;;;;;5040205;28;20032;-87
2022/02/23 08:24:56;;;;;;;20.80;3.17;;;4.70;99.90;;;;;;5049569;28;20024;-85
2022/02/23 08:27:26;;;;;;;18.60;3.40;;;4.70;99.90;;;;;;5052335;28;20049;-85
2022/02/23 08:29:53;;;;;;;21.57;3.70;;;4.80;99.90;;;;;;5052532;28;20029;-87
2022/02/23 08:33:07;;;;;;;14.90;2.97;;;4.70;99.90;;;;;;5052385;28;20028;-85
2022/02/23 08:35:34;;;;;;;13.93;3.37;;;4.90;99.90;;;;;;5052098;28;20057;-86
2022/02/23 08:38:03;;;;;;;21.27;4.03;;;4.90;99.90;;;;;;5051770;28;20040;-86
2022/02/23 08:40:29;;;;;;;14.43;2.83;;;5.10;99.90;;;;;;5015245;28;20029;-86
2022/02/23 08:43:00;;;;;;;17.13;3.53;;;5.10;99.90;;;;;;5051772;28;20036;-86
2022/02/23 08:45:27;;;;;;;18.40;3.80;;;5.10;99.90;;;;;;5035373;28;20481;-86
2022/02/23 08:47:55;;;;;;;12.13;2.83;;;5.20;99.90;;;;;;5035988;28;20025;-86
2022/02/23 08:50:23;;;;;;;20.10;3.53;;;5.20;99.90;;;;;;5052193;28;20017;-86
2022/02/23 08:52:55;;;;;;;17.67;3.37;;;5.30;99.90;;;;;;5051778;28;20032;-84
2022/02/23 08:55:22;;;;;;;18.47;3.73;;;5.40;99.90;;;;;;5043394;28;20025;-85
2022/02/23 08:57:48;;;;;;;20.77;4.37;;;5.60;99.90;;;;;;5035829;28;20056;-88
2022/02/23 09:00:14;;;;;;;20.90;4.90;;;5.50;99.90;;;;;;5032312;28;20041;-86
2022/02/23 09:02:40;;;;;;;22.70;4.33;;;5.50;99.90;;;;;;5052914;28;20108;-87
2022/02/23 09:05:06;;;;;;;23.13;4.00;;;5.60;99.90;;;;;;5032865;28;20060;-85
2022/02/23 09:07:35;;;;;;;17.20;4.73;;;5.70;99.90;;;;;;5044391;28;20159;-87
2022/02/23 09:10:04;;;;;;;23.13;4.97;;;5.70;99.90;;;;;;5033812;28;20083;-85
2022/02/23 09:12:29;;;;;;;18.80;5.00;;;5.80;99.90;;;;;;5047631;28;20029;-87
2022/02/23 09:14:55;;;;;;;19.60;4.93;;;5.90;99.90;;;;;;5053731;28;20496;-86
2022/02/23 09:17:24;;;;;;;19.97;4.80;;;5.90;99.90;;;;;;5052990;28;20029;-86
2022/02/23 09:19:50;;;;;;;14.93;4.23;;;6.00;99.90;;;;;;5045943;28;20018;-86
2022/02/23 09:22:16;;;;;;;15.40;4.70;;;6.10;99.90;;;;;;5028536;28;20033;-86
2022/02/23 09:24:42;;;;;;;21.80;7.00;;;6.20;99.90;;;;;;5038771;28;20029;-87
2022/02/23 09:27:08;;;;;;;18.97;4.33;;;6.20;99.90;;;;;;5056236;28;20036;-87
2022/02/23 09:29:36;;;;;;;19.10;5.03;;;6.30;99.90;;;;;;5056075;28;20033;-87
2022/02/23 09:32:03;;;;;;;20.47;5.37;;;6.30;99.90;;;;;;5056232;28;20029;-86
2022/02/23 09:34:32;;;;;;;11.97;5.30;;;6.50;99.90;;;;;;5055514;28;20087;-88
2022/02/23 09:36:57;;;;;;;21.73;5.47;;;6.50;99.90;;;;;;5056733;28;20029;-88
2022/02/23 09:39:25;;;;;;;19.90;5.37;;;6.60;99.90;;;;;;5031406;28;20461;-84
2022/02/23 09:41:55;;;;;;;20.90;6.30;;;6.70;99.90;;;;;;5045348;28;20025;-84
2022/02/23 09:44:21;;;;;;;21.30;5.07;;;6.80;99.90;;;;;;5049849;28;20051;-84
2022/02/23 09:46:47;;;;;;;13.93;5.00;;;6.80;99.90;;;;;;5038519;28;20064;-85
2022/02/23 09:49:13;;;;;;;17.50;4.77;;;7.00;99.90;;;;;;5054300;28;20039;-85
2022/02/23 09:51:39;;;;;;;24.13;6.10;;;7.00;99.90;;;;;;5054388;28;20029;-85
2022/02/23 09:54:05;;;;;;;14.23;4.87;;;7.20;99.90;;;;;;5054339;28;20021;-85
2022/02/23 09:56:32;;;;;;;15.93;4.93;;;7.20;99.90;;;;;;5054913;28;20560;-84
2022/02/23 09:58:59;;;;;;;22.30;5.80;;;7.30;99.90;;;;;;5053856;28;20432;-85
2022/02/23 10:01:26;;;;;;;17.43;5.63;;;7.40;99.90;;;;;;5055047;28;20021;-84
2022/02/23 10:03:55;;;;;;;17.07;5.83;;;7.50;99.90;;;;;;5054901;28;20021;-85
2022/02/23 10:06:31;;;;;;;17.83;5.57;;;7.80;99.90;;;;;;5056252;28;20112;-88
2022/02/23 10:09:12;;;;;;;19.50;6.60;;;8.20;99.90;;;;;;5038055;28;20099;-85
2022/02/23 10:11:40;;;;;;;20.57;6.00;;;8.50;99.90;;;;;;5054736;28;20075;-89
2022/02/23 10:14:11;;;;;;;18.60;5.67;;;8.90;99.90;;;;;;5039119;28;20036;-90
2022/02/23 10:16:47;;;;;;;13.00;4.47;;;9.30;99.90;;;;;;5055254;28;20044;-87
2022/02/23 10:19:17;;;;;;;12.10;4.18;;;10.10;99.90;;;;;;5055737;28;20427;-88
2022/02/23 10:22:03;;;;;;;15.07;3.92;;;10.70;99.90;;;;;;5044334;28;20102;-86
2022/02/23 10:24:31;;;;;;;16.13;5.13;;;11.40;99.90;;;;;;5055421;28;20384;-87
2022/02/23 10:26:58;;;;;;;13.40;4.15;;;12.10;99.90;;;;;;5055557;28;20094;-89
2022/02/23 10:29:32;;;;;;;10.10;2.85;;;12.70;99.90;;;;;;5050620;28;20024;-87
2022/02/23 10:32:00;;;;;;;;;;;13.30;99.90;;;;;;5059716;28;20381;-87
2022/02/23 10:34:26;;;;;;;15.07;3.55;;;13.80;99.70;;;;;;5049721;28;20357;-89
2022/02/23 10:37:07;;;;;;;13.55;3.33;;;14.30;99.60;;;;;;5049939;28;20076;-87
2022/02/23 10:39:45;;;;;;;13.35;2.75;;;14.90;97.70;;;;;;5048568;28;20009;-87
2022/02/23 10:42:26;;;;;;;12.20;2.88;;;15.30;95.20;;;;;;5041585;28;20025;-86
2022/02/23 10:44:53;;;;;;;15.73;3.33;;;15.80;91.30;;;;;;5036669;28;20026;-88
2022/02/23 10:47:33;;;;;;;10.70;3.10;;;16.20;89.50;;;;;;5041675;28;20032;-87
2022/02/23 10:50:03;;;;;;;15.20;3.45;;;16.50;82.90;;;;;;5055879;28;20028;-87
2022/02/23 10:52:30;;;;;;;9.50;2.35;;;16.70;80.00;;;;;;5063233;28;20025;-87
2022/02/23 10:55:16;;;;;;;12.05;2.47;;;17.00;76.40;;;;;;5066362;28;20021;-88
2022/02/23 10:57:45;;;;;;;10.65;2.45;;;17.30;74.40;;;;;;5066050;28;20090;-87
2022/02/23 11:00:16;;;;;;;12.05;2.47;;;17.60;74.90;;;;;;5069223;28;20021;-87
2022/02/23 11:02:45;;;;;;;8.95;2.28;;;17.80;71.30;;;;;;5057871;28;20024;-88
2022/02/23 11:05:13;;;;;;;9.05;1.80;;;17.90;69.50;;;;;;5046293;28;20108;-90
2022/02/23 11:07:42;;;;;;;8.73;1.52;;;18.10;68.60;;;;;;5018906;28;20057;-88
2022/02/23 11:10:13;;;;;;;8.95;2.42;;;18.40;70.30;;;;;;5034497;28;20482;-87
2022/02/23 11:12:50;;;;;;;9.88;1.95;;;18.80;68.70;;;;;;5040110;28;20096;-89
2022/02/23 11:15:21;;;;;;;9.50;1.95;;;19.00;66.50;;;;;;5054667;28;20017;-88
2022/02/23 11:17:49;;;;;;;11.13;1.92;;;19.40;67.50;;;;;;5054768;28;20079;-90
2022/02/23 11:20:24;;;;;;;8.30;1.48;;;19.50;59.30;;;;;;5054559;28;20035;-86
2022/02/23 11:22:58;;;;;;;9.68;2.08;;;19.50;59.00;;;;;;5054211;28;20040;-87
2022/02/23 11:25:32;;;;;;;9.57;1.90;;;19.60;59.60;;;;;;5055294;28;20025;-86
2022/02/23 11:28:24;;;;;;;11.63;1.83;;;19.60;54.80;;;;;;5054203;28;20070;-87
2022/02/23 11:30:54;;;;;;;6.38;1.98;;;19.60;55.00;;;;;;5049036;28;20039;-87
2022/02/23 11:33:41;;;;;;;8.77;1.73;;;19.60;56.00;;;;;;5053575;28;20013;-88
2022/02/23 11:36:25;;;;;;;7.78;1.67;;;19.60;54.20;;;;;;5051619;28;20048;-88
2022/02/23 11:38:52;;;;;;;7.93;1.42;;;19.70;54.20;;;;;;5053644;28;20050;-87
2022/02/23 11:41:23;;;;;;;6.32;1.80;;;19.90;55.20;;;;;;5037209;28;20052;-87
2022/02/23 11:43:55;;;;;;;7.63;1.75;;;20.00;54.10;;;;;;5053521;28;20021;-89
2022/02/23 11:46:20;;;;;;;8.25;1.92;;;20.20;54.60;;;;;;5033960;28;20117;-88
2022/02/23 11:48:56;;;;;;;7.85;1.65;;;20.30;52.30;;;;;;5042487;28;20057;-88
2022/02/23 11:51:38;;;;;;;10.70;2.05;;;20.30;51.10;;;;;;5037081;28;20022;-86
2022/02/23 11:54:06;;;;;;;8.88;1.88;;;20.20;51.00;;;;;;5053269;28;20017;-85
2022/02/23 11:56:46;;;;;;;7.28;1.70;;;20.10;51.20;;;;;;5036267;28;20032;-87
2022/02/23 11:59:45;;;;;;;8.38;1.60;;;20.20;50.40;;;;;;5037740;28;20473;-86
2022/02/23 12:02:12;;;;;;;10.20;1.40;;;20.00;49.50;;;;;;5054466;28;20024;-86
2022/02/23 12:04:49;;;;;;;9.02;1.60;;;20.10;50.80;;;;;;5037067;28;20029;-87
2022/02/23 12:07:15;;;;;;;10.80;1.73;;;20.30;51.10;;;;;;5036889;28;20032;-85
2022/02/23 12:09:55;;;;;;;10.57;1.58;;;20.50;51.00;;;;;;5016491;28;20037;-86
2022/02/23 12:12:41;;;;;;;10.68;1.85;;;20.60;49.90;;;;;;5032572;28;20030;-87
2022/02/23 12:15:20;;;;;;;7.88;1.70;;;20.70;49.60;;;;;;5032954;28;20037;-86
2022/02/23 12:18:06;;;;;;;8.73;1.85;;;20.80;48.80;;;;;;5033063;28;20021;-85
2022/02/23 12:20:35;;;;;;;9.02;1.70;;;20.90;48.90;;;;;;5032284;28;20022;-86
2022/02/23 12:23:19;;;;;;;8.32;1.50;;;21.10;49.10;;;;;;5032862;28;20030;-85
2022/02/23 12:25:56;;;;;;;8.10;1.85;;;21.30;49.10;;;;;;5032693;28;20037;-84
2022/02/23 12:28:22;;;;;;;10.23;2.17;;;21.50;47.90;;;;;;5032740;28;20033;-85
2022/02/23 12:31:04;;;;;;;7.28;1.40;;;21.50;48.10;;;;;;5015902;28;20013;-84
2022/02/23 12:33:35;;;;;;;10.15;2.03;;;21.70;48.60;;;;;;5046933;28;20036;-85
2022/02/23 12:36:03;;;;;;;9.60;1.52;;;21.80;48.30;;;;;;5040983;28;20033;-86
2022/02/23 12:38:37;;;;;;;11.52;2.05;;;21.90;46.90;;;;;;5035911;28;20032;-86
2022/02/23 12:41:10;;;;;;;7.38;1.30;;;22.00;46.70;;;;;;5052412;28;20063;-85
2022/02/23 12:43:37;;;;;;;8.27;1.70;;;22.10;46.90;;;;;;5053757;28;20022;-87
2022/02/23 12:46:03;;;;;;;10.00;1.70;;;22.20;45.60;;;;;;5055184;28;20074;-86
2022/02/23 12:48:33;;;;;;;9.52;1.65;;;22.20;45.50;;;;;;5053591;28;20430;-86
2022/02/23 12:51:04;;;;;;;7.70;1.67;;;21.90;44.90;;;;;;5053403;28;20025;-86
2022/02/23 12:53:38;;;;;;;7.72;1.17;;;21.70;45.40;;;;;;5054702;28;20029;-86
2022/02/23 12:56:29;;;;;;;4.80;1.08;;;21.60;45.40;;;;;;5054747;28;20059;-86
2022/02/23 12:59:09;;;;;;;7.22;1.45;;;21.50;45.90;;;;;;5053825;28;20491;-87
2022/02/23 13:01:42;;;;;;;8.35;1.52;;;21.70;46.20;;;;;;5058112;28;20128;-89
2022/02/23 13:04:11;;;;;;;10.13;1.15;;;21.90;45.40;;;;;;5041837;28;20128;-87